OAL170 LIRZ-EGLC
Flight info
| Callsign | OAL170 |
|---|---|
| Flight time | 2h 10m |
| Altitude | 36000 |
| Route | LAKOX Q25 VERUN Z806 GAVRA M726 PELEG DCT SUKOM DCT LIRSU DCT LNO N852 TERLA L608 SUMUM |
| Aircraft | B737/M-SDE2E3FGHIRWXY/LB1 |
Departure
| Time | 2026-05-07 18:18 |
|---|---|
| Airport | Perugia San Francesco d'Assisi – Umbria International Airport (LIRZ) |
Arrival
| Time | 2026-05-07 20:28 |
|---|---|
| Airport | London City Airport (EGLC) |
| Time | Latitude | Longitude | Altitude | Speed | Heading |
|---|---|---|---|---|---|
| 2026-05-07 17:47 | 43.09360 | 12.50433 | 681 ft | 0 kts | 159° |
| 2026-05-07 18:11 | 43.09361 | 12.50433 | 681 ft | 1 kts | 159° |
| 2026-05-07 18:11 | 43.09382 | 12.50422 | 681 ft | 4 kts | 159° |
| 2026-05-07 18:12 | 43.09393 | 12.50416 | 679 ft | 0 kts | 159° |
| 2026-05-07 18:15 | 43.09344 | 12.50464 | 681 ft | 9 kts | 83° |
| 2026-05-07 18:15 | 43.09344 | 12.50545 | 680 ft | 9 kts | 115° |
| 2026-05-07 18:16 | 43.09312 | 12.50612 | 681 ft | 8 kts | 136° |
| 2026-05-07 18:16 | 43.09249 | 12.50651 | 679 ft | 14 kts | 156° |
| 2026-05-07 18:16 | 43.09149 | 12.50735 | 676 ft | 20 kts | 139° |
| 2026-05-07 18:16 | 43.09064 | 12.50888 | 675 ft | 20 kts | 117° |
| 2026-05-07 18:17 | 43.09034 | 12.51024 | 677 ft | 9 kts | 103° |
| 2026-05-07 18:17 | 43.09024 | 12.51105 | 679 ft | 7 kts | 78° |
| 2026-05-07 18:17 | 43.09063 | 12.51138 | 677 ft | 7 kts | 18° |
| 2026-05-07 18:17 | 43.09250 | 12.51203 | 682 ft | 68 kts | 13° |
| 2026-05-07 18:18 | 43.09994 | 12.51450 | 707 ft | 146 kts | 11° |
| 2026-05-07 18:18 | 43.11058 | 12.51771 | 1421 ft | 156 kts | 14° |
| 2026-05-07 18:18 | 43.12040 | 12.52162 | 2593 ft | 143 kts | 16° |
| 2026-05-07 18:18 | 43.13023 | 12.52555 | 3415 ft | 150 kts | 16° |
| 2026-05-07 18:19 | 43.14062 | 12.52924 | 4247 ft | 154 kts | 8° |
| 2026-05-07 18:19 | 43.15090 | 12.52851 | 5114 ft | 157 kts | 335° |
| 2026-05-07 18:19 | 43.15836 | 12.51698 | 5617 ft | 184 kts | 284° |
| 2026-05-07 18:19 | 43.15666 | 12.49848 | 5949 ft | 217 kts | 239° |
| 2026-05-07 18:20 | 43.14833 | 12.48057 | 6613 ft | 228 kts | 247° |
| 2026-05-07 18:20 | 43.14302 | 12.45992 | 7487 ft | 232 kts | 251° |
| 2026-05-07 18:20 | 43.13793 | 12.43884 | 8532 ft | 233 kts | 252° |
| 2026-05-07 18:20 | 43.13310 | 12.41773 | 9665 ft | 233 kts | 252° |
| 2026-05-07 18:21 | 43.12840 | 12.39636 | 10641 ft | 235 kts | 253° |
| 2026-05-07 18:21 | 43.12372 | 12.37478 | 11632 ft | 237 kts | 253° |
| 2026-05-07 18:21 | 43.11905 | 12.35304 | 12636 ft | 239 kts | 253° |
| 2026-05-07 18:21 | 43.11726 | 12.33041 | 13641 ft | 244 kts | 276° |
| 2026-05-07 18:22 | 43.12280 | 12.30836 | 14593 ft | 247 kts | 287° |
| 2026-05-07 18:22 | 43.12534 | 12.29317 | 15202 ft | 247 kts | 275° |
| 2026-05-07 18:22 | 43.12795 | 12.26205 | 16482 ft | 250 kts | 275° |
| 2026-05-07 18:22 | 43.13135 | 12.23766 | 17008 ft | 274 kts | 282° |
| 2026-05-07 18:23 | 43.13650 | 12.21093 | 17236 ft | 305 kts | 283° |
| 2026-05-07 18:23 | 43.14229 | 12.18148 | 17469 ft | 334 kts | 283° |
| 2026-05-07 18:23 | 43.14837 | 12.14963 | 17914 ft | 353 kts | 283° |
| 2026-05-07 18:23 | 43.15553 | 12.11703 | 18703 ft | 362 kts | 291° |
| 2026-05-07 18:24 | 43.16882 | 12.08807 | 19627 ft | 367 kts | 307° |
| 2026-05-07 18:24 | 43.18592 | 12.06204 | 20582 ft | 369 kts | 310° |
| 2026-05-07 18:24 | 43.20367 | 12.03639 | 21420 ft | 373 kts | 310° |
| 2026-05-07 18:24 | 43.22152 | 12.01036 | 22251 ft | 377 kts | 309° |
| 2026-05-07 18:25 | 43.23942 | 11.98374 | 23078 ft | 381 kts | 309° |
| 2026-05-07 18:25 | 43.25742 | 11.95694 | 23838 ft | 385 kts | 311° |
| 2026-05-07 18:25 | 43.27886 | 11.93417 | 24531 ft | 394 kts | 324° |
| 2026-05-07 18:25 | 43.30391 | 11.91789 | 25268 ft | 403 kts | 335° |
| 2026-05-07 18:26 | 43.33155 | 11.90915 | 25949 ft | 412 kts | 345° |
| 2026-05-07 18:26 | 43.36018 | 11.90352 | 26575 ft | 418 kts | 346° |
| 2026-05-07 18:26 | 43.38889 | 11.89857 | 27170 ft | 422 kts | 346° |
| 2026-05-07 18:26 | 43.41851 | 11.89352 | 27790 ft | 425 kts | 346° |
| 2026-05-07 18:27 | 43.44758 | 11.88840 | 28371 ft | 428 kts | 345° |
| 2026-05-07 18:27 | 43.47726 | 11.88294 | 28930 ft | 431 kts | 345° |
| 2026-05-07 18:27 | 43.50707 | 11.87729 | 29470 ft | 433 kts | 344° |
| 2026-05-07 18:27 | 43.53712 | 11.87150 | 29986 ft | 437 kts | 344° |
| 2026-05-07 18:28 | 43.56728 | 11.86564 | 30410 ft | 439 kts | 344° |
| 2026-05-07 18:28 | 43.59770 | 11.85971 | 30788 ft | 443 kts | 343° |
| 2026-05-07 18:28 | 43.62827 | 11.85377 | 31190 ft | 444 kts | 343° |
| 2026-05-07 18:28 | 43.65899 | 11.84780 | 31601 ft | 445 kts | 343° |
| 2026-05-07 18:29 | 43.68929 | 11.84191 | 32110 ft | 445 kts | 343° |
| 2026-05-07 18:29 | 43.72000 | 11.83595 | 32648 ft | 443 kts | 343° |
| 2026-05-07 18:29 | 43.75051 | 11.83000 | 33131 ft | 443 kts | 343° |
| 2026-05-07 18:29 | 43.78106 | 11.82402 | 33561 ft | 444 kts | 343° |
| 2026-05-07 18:30 | 43.81171 | 11.81792 | 33977 ft | 444 kts | 343° |
| 2026-05-07 18:30 | 43.84234 | 11.81178 | 34364 ft | 443 kts | 343° |
| 2026-05-07 18:30 | 43.87286 | 11.80566 | 34656 ft | 443 kts | 343° |
| 2026-05-07 18:30 | 43.90345 | 11.79952 | 34900 ft | 444 kts | 343° |
| 2026-05-07 18:31 | 43.93410 | 11.79342 | 35211 ft | 445 kts | 343° |
| 2026-05-07 18:31 | 43.96472 | 11.78737 | 35597 ft | 444 kts | 343° |
| 2026-05-07 18:31 | 43.99499 | 11.78139 | 35941 ft | 445 kts | 343° |
| 2026-05-07 18:32 | 44.05648 | 11.76920 | 35997 ft | 446 kts | 343° |
| 2026-05-07 18:32 | 44.11796 | 11.75698 | 35993 ft | 445 kts | 343° |
| 2026-05-07 18:33 | 44.17876 | 11.74485 | 36009 ft | 443 kts | 343° |
| 2026-05-07 18:33 | 44.23994 | 11.73263 | 36013 ft | 443 kts | 343° |
| 2026-05-07 18:34 | 44.30096 | 11.72047 | 36016 ft | 443 kts | 344° |
| 2026-05-07 18:34 | 44.36204 | 11.70829 | 36020 ft | 443 kts | 344° |
| 2026-05-07 18:35 | 44.42267 | 11.69616 | 36017 ft | 443 kts | 344° |
| 2026-05-07 18:35 | 44.48379 | 11.68391 | 36012 ft | 443 kts | 344° |
| 2026-05-07 18:36 | 44.54430 | 11.66919 | 36004 ft | 434 kts | 335° |
| 2026-05-07 18:36 | 44.59778 | 11.63528 | 36020 ft | 419 kts | 322° |
| 2026-05-07 18:37 | 44.64806 | 11.59346 | 36005 ft | 420 kts | 321° |
| 2026-05-07 18:37 | 44.69828 | 11.55145 | 36005 ft | 420 kts | 322° |
| 2026-05-07 18:38 | 44.74843 | 11.50987 | 36012 ft | 421 kts | 322° |
| 2026-05-07 18:38 | 44.79912 | 11.46801 | 36019 ft | 422 kts | 322° |
| 2026-05-07 18:39 | 44.84978 | 11.42618 | 36028 ft | 422 kts | 322° |
| 2026-05-07 18:39 | 44.90063 | 11.38412 | 36035 ft | 423 kts | 322° |
| 2026-05-07 18:40 | 44.95109 | 11.34229 | 36022 ft | 423 kts | 322° |
| 2026-05-07 18:40 | 45.00203 | 11.29997 | 36018 ft | 424 kts | 322° |
| 2026-05-07 18:41 | 45.05285 | 11.25766 | 36004 ft | 424 kts | 322° |
| 2026-05-07 18:41 | 45.10377 | 11.21517 | 36001 ft | 424 kts | 322° |
| 2026-05-07 18:42 | 45.15467 | 11.17262 | 35999 ft | 425 kts | 322° |
| 2026-05-07 18:42 | 45.20525 | 11.13024 | 35999 ft | 425 kts | 322° |
| 2026-05-07 18:43 | 45.25613 | 11.08752 | 35995 ft | 425 kts | 322° |
| 2026-05-07 18:43 | 45.30708 | 11.04466 | 35993 ft | 425 kts | 322° |
| 2026-05-07 18:44 | 45.35765 | 11.00202 | 35969 ft | 425 kts | 322° |
| 2026-05-07 18:44 | 45.40849 | 10.95906 | 35970 ft | 425 kts | 322° |
| 2026-05-07 18:45 | 45.45938 | 10.91598 | 35967 ft | 425 kts | 322° |
| 2026-05-07 18:45 | 45.51021 | 10.87284 | 35973 ft | 425 kts | 323° |
| 2026-05-07 18:46 | 45.56107 | 10.82960 | 35981 ft | 425 kts | 323° |
| 2026-05-07 18:46 | 45.61199 | 10.78621 | 35985 ft | 425 kts | 323° |
| 2026-05-07 18:47 | 45.66249 | 10.74308 | 35992 ft | 426 kts | 323° |
| 2026-05-07 18:47 | 45.71347 | 10.69945 | 35994 ft | 426 kts | 323° |
| 2026-05-07 18:48 | 45.76421 | 10.65595 | 36021 ft | 425 kts | 323° |
| 2026-05-07 18:48 | 45.81504 | 10.61227 | 36032 ft | 425 kts | 323° |
| 2026-05-07 18:49 | 45.86547 | 10.56882 | 36047 ft | 425 kts | 323° |
| 2026-05-07 18:49 | 45.91579 | 10.52539 | 36039 ft | 425 kts | 323° |
| 2026-05-07 18:49 | 45.94094 | 10.50367 | 36029 ft | 413 kts | 323° |
| 2026-05-07 18:50 | 45.95705 | 10.48980 | 36035 ft | 405 kts | 323° |
| 2026-05-07 18:50 | 46.01428 | 10.44013 | 36078 ft | 422 kts | 323° |
| 2026-05-07 18:51 | 46.05694 | 10.40295 | 36050 ft | 430 kts | 323° |
| 2026-05-07 18:51 | 46.10784 | 10.35868 | 36056 ft | 430 kts | 323° |
| 2026-05-07 18:52 | 46.15917 | 10.31395 | 36030 ft | 429 kts | 323° |
| 2026-05-07 18:52 | 46.21023 | 10.26936 | 36037 ft | 428 kts | 323° |
| 2026-05-07 18:53 | 46.26110 | 10.22481 | 36039 ft | 427 kts | 323° |
| 2026-05-07 18:53 | 46.31160 | 10.18049 | 36046 ft | 426 kts | 323° |
| 2026-05-07 18:54 | 46.36221 | 10.13596 | 36049 ft | 424 kts | 323° |
| 2026-05-07 18:54 | 46.41264 | 10.09149 | 36040 ft | 423 kts | 323° |
| 2026-05-07 18:55 | 46.46291 | 10.04707 | 36032 ft | 422 kts | 323° |
| 2026-05-07 18:55 | 46.51272 | 10.00295 | 36042 ft | 420 kts | 323° |
| 2026-05-07 18:56 | 46.56259 | 9.95870 | 36069 ft | 417 kts | 323° |
| 2026-05-07 18:56 | 46.61193 | 9.91480 | 36048 ft | 419 kts | 323° |
| 2026-05-07 18:57 | 46.66177 | 9.87034 | 36054 ft | 421 kts | 323° |
| 2026-05-07 18:57 | 46.71191 | 9.82554 | 36047 ft | 423 kts | 323° |
| 2026-05-07 18:58 | 46.76221 | 9.78050 | 36052 ft | 425 kts | 323° |
| 2026-05-07 18:58 | 46.81270 | 9.73520 | 36061 ft | 426 kts | 323° |
| 2026-05-07 18:59 | 46.86327 | 9.68972 | 36059 ft | 427 kts | 323° |
| 2026-05-07 18:59 | 46.91367 | 9.64430 | 36045 ft | 428 kts | 323° |
| 2026-05-07 19:00 | 46.96448 | 9.59840 | 36044 ft | 429 kts | 323° |
| 2026-05-07 19:00 | 47.01533 | 9.55236 | 36059 ft | 429 kts | 323° |
| 2026-05-07 19:01 | 47.06624 | 9.50616 | 36055 ft | 430 kts | 323° |
| 2026-05-07 19:01 | 47.11679 | 9.46019 | 36036 ft | 429 kts | 323° |
| 2026-05-07 19:02 | 47.16731 | 9.41415 | 36048 ft | 426 kts | 324° |
| 2026-05-07 19:02 | 47.21766 | 9.36815 | 36057 ft | 425 kts | 324° |
| 2026-05-07 19:03 | 47.26789 | 9.32213 | 36056 ft | 425 kts | 324° |
| 2026-05-07 19:03 | 47.31819 | 9.27596 | 36047 ft | 426 kts | 324° |
| 2026-05-07 19:04 | 47.36847 | 9.22970 | 36048 ft | 426 kts | 324° |
| 2026-05-07 19:04 | 47.41845 | 9.18362 | 36042 ft | 426 kts | 324° |
| 2026-05-07 19:05 | 47.46870 | 9.13719 | 36047 ft | 426 kts | 324° |
| 2026-05-07 19:05 | 47.51898 | 9.09061 | 36039 ft | 426 kts | 324° |
| 2026-05-07 19:06 | 47.56930 | 9.04390 | 36044 ft | 426 kts | 324° |
| 2026-05-07 19:06 | 47.64430 | 8.97408 | 36048 ft | 426 kts | 324° |
| 2026-05-07 19:07 | 47.69451 | 8.92719 | 36052 ft | 426 kts | 324° |
| 2026-05-07 19:07 | 47.74471 | 8.88021 | 36051 ft | 426 kts | 324° |
| 2026-05-07 19:08 | 47.79475 | 8.83327 | 36060 ft | 427 kts | 324° |
| 2026-05-07 19:08 | 47.84508 | 8.78595 | 36053 ft | 427 kts | 324° |
| 2026-05-07 19:09 | 47.89515 | 8.73876 | 36054 ft | 427 kts | 324° |
| 2026-05-07 19:09 | 47.94545 | 8.69125 | 36063 ft | 428 kts | 324° |
| 2026-05-07 19:10 | 47.99585 | 8.64353 | 36063 ft | 428 kts | 324° |
| 2026-05-07 19:10 | 48.04615 | 8.59580 | 36065 ft | 428 kts | 324° |
| 2026-05-07 19:11 | 48.09654 | 8.54786 | 36066 ft | 429 kts | 324° |
| 2026-05-07 19:11 | 48.14691 | 8.49984 | 36070 ft | 429 kts | 324° |
| 2026-05-07 19:12 | 48.19694 | 8.45202 | 36070 ft | 429 kts | 324° |
| 2026-05-07 19:12 | 48.24741 | 8.40368 | 36073 ft | 429 kts | 324° |
| 2026-05-07 19:13 | 48.29770 | 8.35539 | 36071 ft | 429 kts | 324° |
| 2026-05-07 19:13 | 48.34774 | 8.30722 | 36068 ft | 429 kts | 324° |
| 2026-05-07 19:14 | 48.39815 | 8.25858 | 36064 ft | 430 kts | 324° |
| 2026-05-07 19:14 | 48.44848 | 8.20991 | 36060 ft | 430 kts | 324° |
| 2026-05-07 19:15 | 48.49880 | 8.16113 | 36062 ft | 430 kts | 324° |
| 2026-05-07 19:15 | 48.54880 | 8.11254 | 36060 ft | 429 kts | 324° |
| 2026-05-07 19:16 | 48.59908 | 8.06357 | 36055 ft | 429 kts | 324° |
| 2026-05-07 19:16 | 48.64930 | 8.01452 | 36049 ft | 429 kts | 324° |
| 2026-05-07 19:17 | 48.69946 | 7.96542 | 36052 ft | 429 kts | 324° |
| 2026-05-07 19:17 | 48.74954 | 7.91629 | 36049 ft | 429 kts | 324° |
| 2026-05-07 19:18 | 48.79961 | 7.86705 | 36051 ft | 429 kts | 324° |
| 2026-05-07 19:18 | 48.84938 | 7.81797 | 36053 ft | 429 kts | 324° |
| 2026-05-07 19:19 | 48.89951 | 7.76843 | 36057 ft | 429 kts | 324° |
| 2026-05-07 19:19 | 48.94966 | 7.71874 | 36059 ft | 430 kts | 324° |
| 2026-05-07 19:20 | 48.99946 | 7.66929 | 36069 ft | 430 kts | 324° |
| 2026-05-07 19:20 | 49.04961 | 7.61936 | 36064 ft | 431 kts | 324° |
| 2026-05-07 19:21 | 49.09988 | 7.56920 | 36069 ft | 431 kts | 324° |
| 2026-05-07 19:21 | 49.15018 | 7.51887 | 36067 ft | 432 kts | 324° |
| 2026-05-07 19:22 | 49.20044 | 7.46847 | 36069 ft | 432 kts | 324° |
| 2026-05-07 19:22 | 49.25052 | 7.41813 | 36072 ft | 432 kts | 324° |
| 2026-05-07 19:23 | 49.30076 | 7.36749 | 36073 ft | 433 kts | 324° |
| 2026-05-07 19:23 | 49.35107 | 7.31666 | 36068 ft | 433 kts | 324° |
| 2026-05-07 19:24 | 49.40131 | 7.26578 | 36069 ft | 433 kts | 324° |
| 2026-05-07 19:24 | 49.45160 | 7.21471 | 36068 ft | 433 kts | 324° |
| 2026-05-07 19:25 | 49.50184 | 7.16357 | 36070 ft | 433 kts | 324° |
| 2026-05-07 19:25 | 49.55174 | 7.11265 | 36060 ft | 433 kts | 324° |
| 2026-05-07 19:26 | 49.60189 | 7.06134 | 36063 ft | 433 kts | 324° |
| 2026-05-07 19:26 | 49.65210 | 7.00984 | 36063 ft | 433 kts | 324° |
| 2026-05-07 19:27 | 49.70230 | 6.95822 | 36062 ft | 433 kts | 324° |
| 2026-05-07 19:27 | 49.75214 | 6.90685 | 36056 ft | 433 kts | 324° |
| 2026-05-07 19:28 | 49.80227 | 6.85505 | 36054 ft | 433 kts | 323° |
| 2026-05-07 19:28 | 49.85245 | 6.80306 | 36047 ft | 433 kts | 323° |
| 2026-05-07 19:29 | 49.90228 | 6.75130 | 36049 ft | 432 kts | 323° |
| 2026-05-07 19:29 | 49.95230 | 6.69922 | 36046 ft | 432 kts | 323° |
| 2026-05-07 19:30 | 50.00233 | 6.64698 | 36047 ft | 433 kts | 323° |
| 2026-05-07 19:30 | 50.05198 | 6.59502 | 36054 ft | 433 kts | 323° |
| 2026-05-07 19:31 | 50.10202 | 6.54250 | 36049 ft | 433 kts | 323° |
| 2026-05-07 19:31 | 50.15199 | 6.48995 | 36058 ft | 433 kts | 323° |
| 2026-05-07 19:32 | 50.19933 | 6.43225 | 36054 ft | 429 kts | 310° |
| 2026-05-07 19:32 | 50.23773 | 6.36196 | 36064 ft | 428 kts | 307° |
| 2026-05-07 19:33 | 50.27584 | 6.29015 | 36072 ft | 428 kts | 308° |
| 2026-05-07 19:33 | 50.31412 | 6.21866 | 36069 ft | 428 kts | 308° |
| 2026-05-07 19:34 | 50.35257 | 6.14725 | 36074 ft | 429 kts | 308° |
| 2026-05-07 19:34 | 50.39100 | 6.07580 | 36071 ft | 429 kts | 308° |
| 2026-05-07 19:35 | 50.42918 | 6.00462 | 36075 ft | 428 kts | 308° |
| 2026-05-07 19:35 | 50.46754 | 5.93286 | 36074 ft | 429 kts | 308° |
| 2026-05-07 19:36 | 50.50587 | 5.86097 | 36078 ft | 429 kts | 308° |
| 2026-05-07 19:36 | 50.54388 | 5.78950 | 36075 ft | 429 kts | 308° |
| 2026-05-07 19:37 | 50.58634 | 5.72334 | 36079 ft | 433 kts | 323° |
| 2026-05-07 19:37 | 50.64087 | 5.68229 | 36083 ft | 437 kts | 337° |
| 2026-05-07 19:38 | 50.65893 | 5.66877 | 36045 ft | 434 kts | 324° |
| 2026-05-07 19:38 | 50.68133 | 5.63784 | 36084 ft | 427 kts | 307° |
| 2026-05-07 19:38 | 50.69708 | 5.59859 | 36073 ft | 423 kts | 291° |
| 2026-05-07 19:38 | 50.70846 | 5.55576 | 36080 ft | 423 kts | 292° |
| 2026-05-07 19:39 | 50.73374 | 5.47171 | 36077 ft | 424 kts | 294° |
| 2026-05-07 19:39 | 50.75950 | 5.38816 | 36074 ft | 425 kts | 294° |
| 2026-05-07 19:40 | 50.78493 | 5.30392 | 36076 ft | 425 kts | 293° |
| 2026-05-07 19:40 | 50.81009 | 5.21921 | 36077 ft | 425 kts | 293° |
| 2026-05-07 19:41 | 50.83499 | 5.13478 | 36082 ft | 425 kts | 293° |
| 2026-05-07 19:41 | 50.85995 | 5.04978 | 36082 ft | 425 kts | 293° |
| 2026-05-07 19:42 | 50.88486 | 4.96469 | 36080 ft | 425 kts | 293° |
| 2026-05-07 19:42 | 50.90954 | 4.88009 | 36079 ft | 425 kts | 293° |
| 2026-05-07 19:43 | 50.93429 | 4.79493 | 36075 ft | 425 kts | 293° |
| 2026-05-07 19:43 | 50.95900 | 4.70963 | 36069 ft | 425 kts | 292° |
| 2026-05-07 19:44 | 50.98365 | 4.62424 | 36077 ft | 425 kts | 292° |
| 2026-05-07 19:44 | 51.00807 | 4.53932 | 36082 ft | 425 kts | 292° |
| 2026-05-07 19:45 | 51.03259 | 4.45377 | 36080 ft | 425 kts | 292° |
| 2026-05-07 19:45 | 51.05700 | 4.36827 | 36080 ft | 425 kts | 292° |
| 2026-05-07 19:46 | 51.08137 | 4.28264 | 36079 ft | 424 kts | 292° |
| 2026-05-07 19:46 | 51.10565 | 4.19697 | 36081 ft | 424 kts | 292° |
| 2026-05-07 19:47 | 51.12973 | 4.11172 | 36078 ft | 424 kts | 292° |
| 2026-05-07 19:47 | 51.15395 | 4.02567 | 36076 ft | 424 kts | 292° |
| 2026-05-07 19:48 | 51.17804 | 3.93975 | 36074 ft | 424 kts | 292° |
| 2026-05-07 19:48 | 51.18990 | 3.89734 | 35907 ft | 425 kts | 292° |
| 2026-05-07 19:48 | 51.20182 | 3.85465 | 35642 ft | 415 kts | 292° |
| 2026-05-07 19:49 | 51.21340 | 3.81314 | 35389 ft | 404 kts | 292° |
| 2026-05-07 19:49 | 51.22470 | 3.77259 | 35137 ft | 395 kts | 292° |
| 2026-05-07 19:49 | 51.23581 | 3.73256 | 34907 ft | 398 kts | 292° |
| 2026-05-07 19:49 | 51.24724 | 3.69121 | 34600 ft | 415 kts | 292° |
| 2026-05-07 19:50 | 51.25890 | 3.64899 | 34092 ft | 410 kts | 292° |
| 2026-05-07 19:50 | 51.27031 | 3.60772 | 33554 ft | 404 kts | 292° |
| 2026-05-07 19:50 | 51.28159 | 3.56684 | 33002 ft | 399 kts | 292° |
| 2026-05-07 19:50 | 51.29255 | 3.52705 | 32475 ft | 394 kts | 292° |
| 2026-05-07 19:51 | 51.30354 | 3.48706 | 31950 ft | 390 kts | 292° |
| 2026-05-07 19:51 | 51.31438 | 3.44757 | 31531 ft | 384 kts | 291° |
| 2026-05-07 19:51 | 51.32497 | 3.40891 | 31281 ft | 374 kts | 291° |
| 2026-05-07 19:51 | 51.33528 | 3.37120 | 31017 ft | 365 kts | 291° |
| 2026-05-07 19:52 | 51.34535 | 3.33432 | 30757 ft | 358 kts | 291° |
| 2026-05-07 19:52 | 51.35521 | 3.29810 | 30505 ft | 351 kts | 291° |
| 2026-05-07 19:52 | 51.36485 | 3.26267 | 30253 ft | 344 kts | 291° |
| 2026-05-07 19:52 | 51.37431 | 3.22782 | 29976 ft | 339 kts | 291° |
| 2026-05-07 19:53 | 51.38374 | 3.19303 | 29709 ft | 346 kts | 291° |
| 2026-05-07 19:53 | 51.39366 | 3.15632 | 29467 ft | 371 kts | 291° |
| 2026-05-07 19:53 | 51.40406 | 3.11777 | 29212 ft | 394 kts | 291° |
| 2026-05-07 19:53 | 51.41483 | 3.07654 | 28934 ft | 403 kts | 290° |
| 2026-05-07 19:54 | 51.42478 | 3.03483 | 28645 ft | 397 kts | 289° |
| 2026-05-07 19:54 | 51.43429 | 2.99349 | 28353 ft | 391 kts | 288° |
| 2026-05-07 19:54 | 51.44360 | 2.95269 | 28075 ft | 389 kts | 288° |
| 2026-05-07 19:54 | 51.45293 | 2.91198 | 27813 ft | 389 kts | 288° |
| 2026-05-07 19:55 | 51.46231 | 2.87126 | 27538 ft | 389 kts | 289° |
| 2026-05-07 19:55 | 51.47160 | 2.83114 | 27275 ft | 388 kts | 289° |
| 2026-05-07 19:55 | 51.48100 | 2.79058 | 27004 ft | 387 kts | 289° |
| 2026-05-07 19:55 | 51.49040 | 2.75006 | 26749 ft | 386 kts | 289° |
| 2026-05-07 19:56 | 51.49973 | 2.70975 | 26497 ft | 385 kts | 289° |
| 2026-05-07 19:56 | 51.50904 | 2.66949 | 26237 ft | 384 kts | 289° |
| 2026-05-07 19:56 | 51.51828 | 2.62943 | 25803 ft | 382 kts | 289° |
| 2026-05-07 19:56 | 51.52744 | 2.58968 | 25249 ft | 376 kts | 289° |
| 2026-05-07 19:57 | 51.53648 | 2.55036 | 24659 ft | 372 kts | 289° |
| 2026-05-07 19:57 | 51.54525 | 2.51214 | 24096 ft | 368 kts | 289° |
| 2026-05-07 19:57 | 51.55404 | 2.47360 | 23502 ft | 365 kts | 288° |
| 2026-05-07 19:57 | 51.56271 | 2.43547 | 22854 ft | 361 kts | 288° |
| 2026-05-07 19:58 | 51.57128 | 2.39764 | 22271 ft | 357 kts | 288° |
| 2026-05-07 19:58 | 51.57972 | 2.36034 | 21690 ft | 353 kts | 288° |
| 2026-05-07 19:58 | 51.58810 | 2.32345 | 21129 ft | 349 kts | 289° |
| 2026-05-07 19:58 | 51.59643 | 2.28690 | 20548 ft | 346 kts | 289° |
| 2026-05-07 19:59 | 51.60459 | 2.25105 | 20000 ft | 344 kts | 289° |
| 2026-05-07 19:59 | 51.61278 | 2.21504 | 19446 ft | 341 kts | 289° |
| 2026-05-07 19:59 | 51.62091 | 2.17924 | 18901 ft | 339 kts | 288° |
| 2026-05-07 19:59 | 51.62896 | 2.14368 | 18346 ft | 337 kts | 288° |
| 2026-05-07 20:00 | 51.63696 | 2.10828 | 17726 ft | 336 kts | 288° |
| 2026-05-07 20:00 | 51.64490 | 2.07303 | 17146 ft | 333 kts | 288° |
| 2026-05-07 20:00 | 51.65278 | 2.03804 | 16582 ft | 331 kts | 288° |
| 2026-05-07 20:00 | 51.66059 | 2.00324 | 16027 ft | 328 kts | 288° |
| 2026-05-07 20:01 | 51.66832 | 1.96874 | 15479 ft | 326 kts | 288° |
| 2026-05-07 20:01 | 51.67601 | 1.93441 | 14943 ft | 324 kts | 288° |
| 2026-05-07 20:01 | 51.68354 | 1.90070 | 14417 ft | 322 kts | 288° |
| 2026-05-07 20:01 | 51.69111 | 1.86676 | 13877 ft | 321 kts | 288° |
| 2026-05-07 20:02 | 51.69865 | 1.83291 | 13280 ft | 320 kts | 288° |
| 2026-05-07 20:02 | 51.70613 | 1.79926 | 12706 ft | 318 kts | 288° |
| 2026-05-07 20:02 | 51.71357 | 1.76574 | 12152 ft | 316 kts | 288° |
| 2026-05-07 20:02 | 51.72094 | 1.73252 | 11607 ft | 313 kts | 288° |
| 2026-05-07 20:03 | 51.72826 | 1.69950 | 11079 ft | 311 kts | 288° |
| 2026-05-07 20:03 | 51.73549 | 1.66676 | 10622 ft | 306 kts | 288° |
| 2026-05-07 20:03 | 51.74246 | 1.63525 | 10504 ft | 291 kts | 288° |
| 2026-05-07 20:03 | 51.74706 | 1.60474 | 10235 ft | 280 kts | 269° |
| 2026-05-07 20:04 | 51.74548 | 1.57383 | 10144 ft | 276 kts | 262° |
| 2026-05-07 20:04 | 51.74335 | 1.54289 | 10100 ft | 275 kts | 262° |
| 2026-05-07 20:04 | 51.74136 | 1.51296 | 10079 ft | 260 kts | 262° |
| 2026-05-07 20:04 | 51.73953 | 1.48481 | 10063 ft | 245 kts | 262° |
| 2026-05-07 20:05 | 51.73781 | 1.45834 | 10064 ft | 230 kts | 262° |
| 2026-05-07 20:05 | 51.73620 | 1.43341 | 10066 ft | 216 kts | 262° |
| 2026-05-07 20:05 | 51.73370 | 1.41030 | 10079 ft | 205 kts | 255° |
| 2026-05-07 20:05 | 51.73009 | 1.38807 | 10084 ft | 206 kts | 253° |
| 2026-05-07 20:06 | 51.72631 | 1.36580 | 10101 ft | 211 kts | 253° |
| 2026-05-07 20:06 | 51.72239 | 1.34279 | 10092 ft | 213 kts | 253° |
| 2026-05-07 20:06 | 51.71849 | 1.31970 | 9833 ft | 214 kts | 253° |
| 2026-05-07 20:06 | 51.71442 | 1.29556 | 9207 ft | 229 kts | 253° |
| 2026-05-07 20:07 | 51.71023 | 1.27061 | 8820 ft | 231 kts | 253° |
| 2026-05-07 20:07 | 51.70604 | 1.24556 | 8521 ft | 230 kts | 254° |
| 2026-05-07 20:07 | 51.70190 | 1.22075 | 8291 ft | 227 kts | 254° |
| 2026-05-07 20:07 | 51.69779 | 1.19622 | 8166 ft | 226 kts | 254° |
| 2026-05-07 20:08 | 51.69369 | 1.17164 | 8041 ft | 228 kts | 254° |
| 2026-05-07 20:08 | 51.68956 | 1.14691 | 7853 ft | 232 kts | 254° |
| 2026-05-07 20:08 | 51.68539 | 1.12191 | 7659 ft | 230 kts | 254° |
| 2026-05-07 20:08 | 51.68131 | 1.09748 | 7463 ft | 228 kts | 254° |
| 2026-05-07 20:09 | 51.67719 | 1.07284 | 7269 ft | 228 kts | 254° |
| 2026-05-07 20:09 | 51.67308 | 1.04823 | 7086 ft | 227 kts | 254° |
| 2026-05-07 20:09 | 51.66895 | 1.02362 | 6880 ft | 228 kts | 254° |
| 2026-05-07 20:10 | 51.66060 | 0.97386 | 6381 ft | 231 kts | 254° |
| 2026-05-07 20:10 | 51.65494 | 0.94969 | 6101 ft | 231 kts | 238° |
| 2026-05-07 20:10 | 51.64630 | 0.92846 | 6037 ft | 222 kts | 236° |
| 2026-05-07 20:10 | 51.63783 | 0.90780 | 6071 ft | 220 kts | 236° |
| 2026-05-07 20:11 | 51.62936 | 0.88715 | 6090 ft | 223 kts | 236° |
| 2026-05-07 20:11 | 51.62098 | 0.86672 | 6098 ft | 226 kts | 236° |
| 2026-05-07 20:11 | 51.61220 | 0.84535 | 6083 ft | 227 kts | 236° |
| 2026-05-07 20:11 | 51.60350 | 0.82414 | 6061 ft | 226 kts | 236° |
| 2026-05-07 20:12 | 51.59487 | 0.80315 | 5857 ft | 227 kts | 236° |
| 2026-05-07 20:12 | 51.58637 | 0.78251 | 5571 ft | 216 kts | 236° |
| 2026-05-07 20:12 | 51.57823 | 0.76281 | 5308 ft | 207 kts | 236° |
| 2026-05-07 20:12 | 51.57013 | 0.74332 | 5082 ft | 212 kts | 236° |
| 2026-05-07 20:13 | 51.56209 | 0.72404 | 4809 ft | 203 kts | 236° |
| 2026-05-07 20:13 | 51.55439 | 0.70562 | 4533 ft | 195 kts | 236° |
| 2026-05-07 20:13 | 51.54698 | 0.68778 | 4261 ft | 188 kts | 236° |
| 2026-05-07 20:13 | 51.53988 | 0.67054 | 4048 ft | 180 kts | 236° |
| 2026-05-07 20:14 | 51.53332 | 0.65442 | 3991 ft | 164 kts | 236° |
| 2026-05-07 20:14 | 51.52724 | 0.63944 | 4002 ft | 160 kts | 236° |
| 2026-05-07 20:14 | 51.52118 | 0.62449 | 3994 ft | 160 kts | 236° |
| 2026-05-07 20:14 | 51.51510 | 0.60950 | 4003 ft | 161 kts | 236° |
| 2026-05-07 20:15 | 51.50899 | 0.59444 | 4004 ft | 161 kts | 236° |
| 2026-05-07 20:15 | 51.50284 | 0.57930 | 4002 ft | 162 kts | 236° |
| 2026-05-07 20:15 | 51.49668 | 0.56410 | 4002 ft | 162 kts | 236° |
| 2026-05-07 20:15 | 51.49049 | 0.54887 | 3998 ft | 163 kts | 236° |
| 2026-05-07 20:16 | 51.48433 | 0.53365 | 3993 ft | 163 kts | 236° |
| 2026-05-07 20:16 | 51.47812 | 0.51832 | 4006 ft | 170 kts | 236° |
| 2026-05-07 20:16 | 51.47133 | 0.50163 | 3910 ft | 184 kts | 236° |
| 2026-05-07 20:16 | 51.46435 | 0.48446 | 3639 ft | 182 kts | 236° |
| 2026-05-07 20:17 | 51.45763 | 0.46785 | 3369 ft | 178 kts | 236° |
| 2026-05-07 20:17 | 51.45099 | 0.45130 | 3106 ft | 174 kts | 236° |
| 2026-05-07 20:17 | 51.44465 | 0.43531 | 3016 ft | 169 kts | 236° |
| 2026-05-07 20:17 | 51.43839 | 0.41945 | 2996 ft | 167 kts | 236° |
| 2026-05-07 20:18 | 51.43219 | 0.40370 | 3014 ft | 169 kts | 236° |
| 2026-05-07 20:18 | 51.42613 | 0.38729 | 2994 ft | 174 kts | 249° |
| 2026-05-07 20:18 | 51.42565 | 0.36809 | 3017 ft | 174 kts | 272° |
| 2026-05-07 20:18 | 51.42626 | 0.34855 | 3004 ft | 176 kts | 271° |
| 2026-05-07 20:19 | 51.42679 | 0.32898 | 2998 ft | 177 kts | 271° |
| 2026-05-07 20:19 | 51.42731 | 0.30925 | 3001 ft | 177 kts | 271° |
| 2026-05-07 20:19 | 51.42782 | 0.28950 | 2999 ft | 177 kts | 271° |
| 2026-05-07 20:19 | 51.42832 | 0.26977 | 2994 ft | 177 kts | 271° |
| 2026-05-07 20:20 | 51.42884 | 0.25004 | 2983 ft | 177 kts | 271° |
| 2026-05-07 20:20 | 51.42934 | 0.23040 | 2986 ft | 176 kts | 271° |
| 2026-05-07 20:20 | 51.42986 | 0.21091 | 2983 ft | 174 kts | 271° |
| 2026-05-07 20:20 | 51.43039 | 0.19188 | 2986 ft | 172 kts | 270° |
| 2026-05-07 20:21 | 51.43086 | 0.17276 | 2989 ft | 171 kts | 271° |
| 2026-05-07 20:21 | 51.43139 | 0.15372 | 2991 ft | 171 kts | 271° |
| 2026-05-07 20:21 | 51.43195 | 0.13419 | 2753 ft | 178 kts | 271° |
| 2026-05-07 20:21 | 51.43255 | 0.11447 | 2497 ft | 176 kts | 271° |
| 2026-05-07 20:22 | 51.43318 | 0.09504 | 2234 ft | 173 kts | 270° |
| 2026-05-07 20:22 | 51.43381 | 0.07573 | 2107 ft | 177 kts | 271° |
| 2026-05-07 20:22 | 51.43448 | 0.05624 | 2024 ft | 176 kts | 270° |
| 2026-05-07 20:22 | 51.43513 | 0.03693 | 1997 ft | 171 kts | 270° |
| 2026-05-07 20:23 | 51.43567 | 0.01780 | 1998 ft | 172 kts | 270° |
| 2026-05-07 20:23 | 51.43616 | -0.00154 | 2010 ft | 174 kts | 270° |
| 2026-05-07 20:23 | 51.43666 | -0.02089 | 1996 ft | 174 kts | 270° |
| 2026-05-07 20:23 | 51.43714 | -0.04018 | 2003 ft | 173 kts | 269° |
| 2026-05-07 20:24 | 51.43888 | -0.05900 | 1969 ft | 176 kts | 297° |
| 2026-05-07 20:24 | 51.44678 | -0.07376 | 2008 ft | 175 kts | 311° |
| 2026-05-07 20:24 | 51.45507 | -0.08821 | 2006 ft | 176 kts | 311° |
| 2026-05-07 20:24 | 51.46336 | -0.10279 | 2015 ft | 178 kts | 311° |
| 2026-05-07 20:25 | 51.47172 | -0.11752 | 2007 ft | 179 kts | 310° |
| 2026-05-07 20:25 | 51.48099 | -0.13055 | 1971 ft | 182 kts | 339° |
| 2026-05-07 20:25 | 51.49301 | -0.12983 | 1998 ft | 175 kts | 31° |
| 2026-05-07 20:25 | 51.50134 | -0.11639 | 2029 ft | 171 kts | 53° |
| 2026-05-07 20:26 | 51.50881 | -0.10193 | 2159 ft | 162 kts | 53° |
| 2026-05-07 20:26 | 51.51187 | -0.09099 | 2540 ft | 158 kts | 83° |
| 2026-05-07 20:26 | 51.51168 | -0.07233 | 2474 ft | 172 kts | 99° |
| 2026-05-07 20:26 | 51.51037 | -0.05431 | 2076 ft | 154 kts | 99° |
| 2026-05-07 20:27 | 51.50913 | -0.03753 | 1594 ft | 148 kts | 99° |
| 2026-05-07 20:27 | 51.50804 | -0.02168 | 1236 ft | 137 kts | 96° |
| 2026-05-07 20:27 | 51.50748 | -0.00648 | 947 ft | 136 kts | 96° |
| 2026-05-07 20:27 | 51.50683 | 0.00867 | 722 ft | 139 kts | 93° |
| 2026-05-07 20:28 | 51.50629 | 0.02394 | 521 ft | 133 kts | 93° |
| 2026-05-07 20:28 | 51.50579 | 0.03899 | 186 ft | 138 kts | 93° |
| 2026-05-07 20:28 | 51.50529 | 0.05394 | 26 ft | 124 kts | 93° |
| 2026-05-07 20:28 | 51.50503 | 0.06197 | 30 ft | 21 kts | 93° |
| 2026-05-07 20:29 | 51.50458 | 0.06331 | 29 ft | 0 kts | 147° |
| 2026-05-07 20:30 | 51.50455 | 0.06335 | 29 ft | 2 kts | 147° |
| 2026-05-07 20:31 | 51.50434 | 0.06365 | 28 ft | 6 kts | 126° |
| 2026-05-07 20:31 | 51.50417 | 0.06439 | 28 ft | 8 kts | 97° |
| 2026-05-07 20:31 | 51.50418 | 0.06535 | 28 ft | 0 kts | 76° |